Cirencester, United Kingdom
Current Conditions -  °F | °C
As of 10:58 PM on Friday 19 Dec 2014 (Local Time) from EGVA Reporting Station
Clear Clear  
Wind Chill: 33°   Ceiling: Unl
Heat Index: 41°   Visibility: 6mi
Dew Point: 36°   Wind: 14mph
Humidity: 84%   Direction: 250°WSW
Pressure: 30.19"   Gusts: NA
Location:  51.72°N, 1.97°W
Report Text: EGVA 192258Z AUTO 25012KT 9999 CLR 05/02 A3019 RMK AO2 SLP229 T00490024
Loading
Personal Weather Stations






























Interactive Weather Map New forecast layout! Learn more

10-Day Weather Forecast

Advertisements
Track Severe Weather on mobile